3K3

Syracuse-Hamilton County Municipal Airport

Syracuse, Kansas, USA
METAR K3K3 260315Z AUTO 14004KT 10SM CLR 07/00 A3009 RMK AO2
Observed Flight Rules
Apr-26 @ 03:15 UTC (23 minutes ago) Visual Flight Rules
Wind Visibility Clouds
140° at 4 knots 10 miles
  • Clear skies
Temperatures Readings
Current 7°C / 45°F
Dewpoint 0°C / 32°F
Humidity 61%
Altimeter 30.09" Hg
Pressure 1019 hPa
Elevation 1013
METAR K3K3 260315Z AUTO 14004KT 10SM CLR 07/00 A3009 RMK AO2
Observed Flight Rules
Apr-26 @ 03:15 UTC
(23 minutes ago)
VFR
Wind Visibility
140° at 4 knots 10 miles
Clouds
  • Clear skies
Temperature Dewpoint
7°C / 45°F 0°C / 32°F
Humidity Altimeter Pressure
61% 30.09" Hg 1019 hPa